createdAt,value
2019-06-26T00:00:51.000Z,293.17
2019-06-26T00:02:13.000Z,293.22
2019-06-26T00:04:14.000Z,293.22
2019-06-26T00:05:38.000Z,293.23
2019-06-26T00:07:40.000Z,293.22
2019-06-26T00:09:02.000Z,293.08
2019-06-26T00:11:04.000Z,292.99
2019-06-26T00:12:26.000Z,292.94
2019-06-26T00:14:27.000Z,292.89
2019-06-26T00:15:50.000Z,292.91
2019-06-26T00:17:51.000Z,292.83
2019-06-26T00:19:14.000Z,292.81
2019-06-26T00:21:18.000Z,292.85
2019-06-26T00:22:43.000Z,292.86
2019-06-26T00:24:45.000Z,292.81
2019-06-26T00:26:07.000Z,292.83
2019-06-26T00:28:08.000Z,292.83
2019-06-26T00:29:31.000Z,292.75
2019-06-26T00:31:33.000Z,292.72
2019-06-26T00:32:56.000Z,292.63
2019-06-26T00:34:57.000Z,292.64
2019-06-26T00:36:19.000Z,292.67
2019-06-26T00:38:21.000Z,292.7
2019-06-26T00:39:44.000Z,292.65
2019-06-26T00:41:46.000Z,292.58
2019-06-26T00:43:08.000Z,292.61
2019-06-26T00:45:09.000Z,292.52
2019-06-26T00:46:31.000Z,292.53
2019-06-26T00:48:32.000Z,292.54
2019-06-26T00:49:55.000Z,292.49
2019-06-26T00:51:56.000Z,292.41
2019-06-26T00:53:18.000Z,292.41
2019-06-26T00:55:19.000Z,292.49
2019-06-26T00:56:44.000Z,292.52
2019-06-26T00:58:46.000Z,292.5
2019-06-26T01:00:09.000Z,292.51
2019-06-26T01:02:10.000Z,292.38
2019-06-26T01:03:33.000Z,292.28
2019-06-26T01:05:36.000Z,292.22
2019-06-26T01:06:59.000Z,292.26
2019-06-26T01:09:02.000Z,292.31
2019-06-26T01:10:26.000Z,292.28
2019-06-26T01:12:29.000Z,292.21
2019-06-26T01:13:53.000Z,292.17
2019-06-26T01:16:00.000Z,292.05
2019-06-26T01:17:22.000Z,292.09
2019-06-26T01:19:29.000Z,292.11
2019-06-26T01:20:52.000Z,292.05
2019-06-26T01:22:53.000Z,292.04
2019-06-26T01:24:16.000Z,292.01
2019-06-26T01:26:18.000Z,292.07
2019-06-26T01:27:44.000Z,292.16
2019-06-26T01:29:47.000Z,292.19
2019-06-26T01:31:12.000Z,292.18
2019-06-26T01:33:18.000Z,292.15
2019-06-26T01:34:43.000Z,292.14
2019-06-26T01:36:46.000Z,292.09
2019-06-26T01:38:13.000Z,292.03
2019-06-26T01:40:15.000Z,291.92
2019-06-26T01:41:40.000Z,291.85
2019-06-26T01:43:43.000Z,291.83
2019-06-26T01:45:06.000Z,291.83
2019-06-26T01:47:10.000Z,291.76
2019-06-26T01:48:36.000Z,291.74
2019-06-26T01:50:40.000Z,291.71
2019-06-26T01:52:03.000Z,291.7
2019-06-26T01:54:07.000Z,291.73
2019-06-26T01:55:37.000Z,291.72
2019-06-26T01:57:41.000Z,291.67
2019-06-26T01:59:05.000Z,291.71
2019-06-26T02:01:12.000Z,291.71
2019-06-26T02:02:35.000Z,291.64
2019-06-26T02:04:41.000Z,291.58
2019-06-26T02:06:05.000Z,291.58
2019-06-26T02:08:13.000Z,291.58
2019-06-26T02:09:44.000Z,291.55
2019-06-26T02:11:47.000Z,291.55
2019-06-26T02:13:11.000Z,291.51
2019-06-26T02:15:15.000Z,291.45
2019-06-26T02:16:44.000Z,291.38
2019-06-26T02:18:51.000Z,291.38
2019-06-26T02:20:14.000Z,291.38
2019-06-26T02:22:19.000Z,291.37
2019-06-26T02:23:44.000Z,291.34
2019-06-26T02:25:46.000Z,291.3
2019-06-26T02:27:12.000Z,291.28
2019-06-26T02:29:20.000Z,291.29
2019-06-26T02:30:49.000Z,291.31
2019-06-26T02:32:57.000Z,291.26
2019-06-26T02:34:20.000Z,291.2
2019-06-26T02:36:25.000Z,291.15
2019-06-26T02:37:51.000Z,291.18
2019-06-26T02:39:59.000Z,291.22
2019-06-26T02:41:26.000Z,291.16
2019-06-26T02:43:32.000Z,291.13
2019-06-26T02:45:01.000Z,291.08
2019-06-26T02:47:10.000Z,291.06
2019-06-26T02:48:50.000Z,291.03
2019-06-26T02:50:56.000Z,291
2019-06-26T02:52:24.000Z,291
2019-06-26T02:54:31.000Z,290.97
2019-06-26T02:55:59.000Z,290.93
2019-06-26T02:58:05.000Z,290.98
2019-06-26T02:59:36.000Z,290.96
2019-06-26T03:01:44.000Z,290.95
2019-06-26T03:03:13.000Z,290.95
2019-06-26T03:05:22.000Z,290.93
2019-06-26T03:06:46.000Z,290.91
2019-06-26T03:08:51.000Z,290.9
2019-06-26T03:10:16.000Z,290.95
2019-06-26T03:12:21.000Z,290.97
2019-06-26T03:13:47.000Z,290.96
2019-06-26T03:15:52.000Z,290.91
2019-06-26T03:17:21.000Z,290.91
2019-06-26T03:19:27.000Z,290.85
2019-06-26T03:21:01.000Z,290.84
2019-06-26T03:23:10.000Z,290.88
2019-06-26T03:24:41.000Z,290.91
2019-06-26T03:26:43.000Z,290.87
2019-06-26T03:28:14.000Z,290.86
2019-06-26T03:30:26.000Z,290.85
2019-06-26T03:31:53.000Z,290.87
2019-06-26T03:34:04.000Z,290.82
2019-06-26T03:35:35.000Z,290.82
2019-06-26T03:37:46.000Z,290.85
2019-06-26T03:39:17.000Z,290.91
2019-06-26T03:41:22.000Z,290.92
2019-06-26T03:42:55.000Z,290.88
2019-06-26T03:45:05.000Z,290.87
2019-06-26T03:46:37.000Z,290.87
2019-06-26T03:48:50.000Z,290.89
2019-06-26T03:50:22.000Z,290.94
2019-06-26T03:52:34.000Z,290.94
2019-06-26T03:54:07.000Z,290.95
2019-06-26T03:56:23.000Z,290.97
2019-06-26T03:57:50.000Z,290.95
2019-06-26T04:00:00.000Z,290.94
2019-06-26T04:01:32.000Z,290.96
2019-06-26T04:03:42.000Z,290.97
2019-06-26T04:05:11.000Z,290.99
2019-06-26T04:07:18.000Z,291.07
2019-06-26T04:08:49.000Z,291.13
2019-06-26T04:11:02.000Z,291.16
2019-06-26T04:12:32.000Z,291.19
2019-06-26T04:15:53.000Z,291.23
2019-06-26T04:17:15.000Z,291.23
2019-06-26T04:19:21.000Z,291.29
2019-06-26T04:20:43.000Z,291.35
2019-06-26T04:22:43.000Z,291.37
2019-06-26T04:24:09.000Z,291.42
2019-06-26T04:26:11.000Z,291.45
2019-06-26T04:27:33.000Z,291.52
2019-06-26T04:29:35.000Z,291.59
2019-06-26T04:30:57.000Z,291.65
2019-06-26T04:32:58.000Z,291.69
2019-06-26T04:34:20.000Z,291.74
2019-06-26T04:36:21.000Z,291.81
2019-06-26T04:37:43.000Z,291.92
2019-06-26T04:39:46.000Z,292.03
2019-06-26T04:41:08.000Z,292.12
2019-06-26T04:43:09.000Z,292.26
2019-06-26T04:44:32.000Z,292.36
2019-06-26T04:46:34.000Z,292.49
2019-06-26T04:47:57.000Z,292.58
2019-06-26T04:49:58.000Z,292.69
2019-06-26T04:51:21.000Z,292.85
2019-06-26T04:53:32.000Z,292.9
2019-06-26T04:54:55.000Z,292.97
2019-06-26T04:56:56.000Z,292.98
2019-06-26T04:58:21.000Z,293.12
2019-06-26T05:00:22.000Z,293.26
2019-06-26T05:01:45.000Z,293.3
2019-06-26T05:03:46.000Z,293.25
2019-06-26T05:05:08.000Z,293.4
2019-06-26T05:07:12.000Z,293.53
2019-06-26T05:08:35.000Z,293.63
2019-06-26T05:10:37.000Z,293.76
2019-06-26T05:11:59.000Z,293.89
2019-06-26T05:14:02.000Z,293.85
2019-06-26T05:15:25.000Z,293.9
2019-06-26T05:17:26.000Z,293.99
2019-06-26T05:18:49.000Z,294.15
2019-06-26T05:20:51.000Z,294.26
2019-06-26T05:22:13.000Z,294.36
2019-06-26T05:24:15.000Z,294.44
2019-06-26T05:25:40.000Z,294.54
2019-06-26T05:27:42.000Z,294.61
2019-06-26T05:29:05.000Z,294.67
2019-06-26T05:31:07.000Z,294.71
2019-06-26T05:32:34.000Z,294.76
2019-06-26T05:34:36.000Z,294.79
2019-06-26T05:35:58.000Z,294.86
2019-06-26T05:38:00.000Z,294.97
2019-06-26T05:39:21.000Z,295.07
2019-06-26T05:41:22.000Z,295.15
2019-06-26T05:42:46.000Z,295.24
2019-06-26T05:44:49.000Z,295.32
2019-06-26T05:46:13.000Z,295.41
2019-06-26T05:48:16.000Z,295.53
2019-06-26T05:49:40.000Z,295.66
2019-06-26T05:51:41.000Z,295.81
2019-06-26T05:53:04.000Z,295.85
2019-06-26T05:55:05.000Z,295.89
2019-06-26T05:56:30.000Z,296.01
2019-06-26T05:58:33.000Z,296.04
2019-06-26T05:59:55.000Z,296.15
2019-06-26T06:02:01.000Z,296.19
2019-06-26T06:03:24.000Z,296.3
2019-06-26T06:05:27.000Z,296.34
2019-06-26T06:06:52.000Z,296.37
2019-06-26T06:08:53.000Z,296.43
2019-06-26T06:10:16.000Z,296.5
2019-06-26T06:12:23.000Z,296.58
2019-06-26T06:13:47.000Z,296.67
2019-06-26T06:15:49.000Z,296.67
2019-06-26T06:17:17.000Z,296.74
2019-06-26T06:19:20.000Z,296.8
2019-06-26T06:20:42.000Z,296.85
2019-06-26T06:22:43.000Z,296.96
2019-06-26T06:24:06.000Z,297.08
2019-06-26T06:26:08.000Z,297.17
2019-06-26T06:27:33.000Z,297.25
2019-06-26T06:29:35.000Z,297.35
2019-06-26T06:30:57.000Z,297.45
2019-06-26T06:32:59.000Z,297.54
2019-06-26T06:34:22.000Z,297.65
2019-06-26T06:36:28.000Z,297.68
2019-06-26T06:37:50.000Z,297.77
2019-06-26T06:39:53.000Z,297.9
2019-06-26T06:41:21.000Z,297.96
2019-06-26T06:43:25.000Z,298.1
2019-06-26T06:44:50.000Z,298.18
2019-06-26T06:46:57.000Z,298.29
2019-06-26T06:48:27.000Z,298.41
2019-06-26T06:50:35.000Z,298.52
2019-06-26T06:51:57.000Z,298.64
2019-06-26T06:53:58.000Z,298.81
2019-06-26T06:55:25.000Z,299
2019-06-26T06:57:32.000Z,299.04
2019-06-26T06:59:01.000Z,299.1
2019-06-26T07:01:06.000Z,299.18
2019-06-26T07:02:41.000Z,299.3
2019-06-26T07:04:47.000Z,299.34
2019-06-26T07:06:13.000Z,299.39
2019-06-26T07:08:21.000Z,299.52
2019-06-26T07:09:44.000Z,299.58
2019-06-26T07:11:52.000Z,299.68
2019-06-26T07:13:15.000Z,299.82
2019-06-26T07:15:18.000Z,299.93
2019-06-26T07:16:44.000Z,300
2019-06-26T07:18:51.000Z,300.04
2019-06-26T07:20:15.000Z,300.16
2019-06-26T07:22:17.000Z,300.34
2019-06-26T07:23:48.000Z,300.5
2019-06-26T07:25:54.000Z,300.59
2019-06-26T07:27:20.000Z,300.67
2019-06-26T07:29:25.000Z,300.71
2019-06-26T07:30:55.000Z,300.76
2019-06-26T07:33:01.000Z,300.85
2019-06-26T07:34:31.000Z,300.9
2019-06-26T07:36:34.000Z,300.92
2019-06-26T07:38:01.000Z,301.03
2019-06-26T07:40:09.000Z,301.24
2019-06-26T07:41:39.000Z,301.37
2019-06-26T07:43:44.000Z,301.47
2019-06-26T07:45:11.000Z,301.54
2019-06-26T07:47:16.000Z,301.65
2019-06-26T07:48:54.000Z,301.76
2019-06-26T07:51:05.000Z,301.91
2019-06-26T07:52:31.000Z,302.02
2019-06-26T07:54:37.000Z,302.13
2019-06-26T07:56:03.000Z,302.21
2019-06-26T07:58:10.000Z,302.26
2019-06-26T07:59:37.000Z,302.43
2019-06-26T08:01:46.000Z,302.53
2019-06-26T08:03:12.000Z,302.52
2019-06-26T08:05:25.000Z,302.62
2019-06-26T08:06:55.000Z,302.76
2019-06-26T08:09:02.000Z,302.8
2019-06-26T08:10:28.000Z,302.91
2019-06-26T08:12:36.000Z,303.02
2019-06-26T08:14:09.000Z,303.26
2019-06-26T08:16:22.000Z,303.39
2019-06-26T08:17:47.000Z,303.23
2019-06-26T08:20:14.000Z,303.34
2019-06-26T08:21:43.000Z,303.47
2019-06-26T08:23:49.000Z,303.48
2019-06-26T08:25:18.000Z,303.55
2019-06-26T08:27:29.000Z,303.52
2019-06-26T08:28:58.000Z,303.6
2019-06-26T08:31:11.000Z,303.76
2019-06-26T08:32:40.000Z,303.92
2019-06-26T08:34:51.000Z,304.1
2019-06-26T08:36:20.000Z,304.16
2019-06-26T08:38:26.000Z,304.2
2019-06-26T08:39:52.000Z,304.21
2019-06-26T08:42:00.000Z,304.27
2019-06-26T08:43:31.000Z,304.43
2019-06-26T08:45:44.000Z,304.42
2019-06-26T08:47:12.000Z,304.49
2019-06-26T08:49:24.000Z,304.48
2019-06-26T08:50:59.000Z,304.66
2019-06-26T08:53:04.000Z,304.77
2019-06-26T08:54:33.000Z,304.8
2019-06-26T08:56:43.000Z,304.85
2019-06-26T08:58:14.000Z,304.96
2019-06-26T09:00:22.000Z,305.06
2019-06-26T09:01:50.000Z,305.05
2019-06-26T09:05:12.000Z,305.12
2019-06-26T09:06:34.000Z,305.18
2019-06-26T09:08:35.000Z,305.24
2019-06-26T09:09:57.000Z,305.29
2019-06-26T09:11:58.000Z,305.18
2019-06-26T09:13:20.000Z,305.16
2019-06-26T09:15:23.000Z,305.28
2019-06-26T09:16:45.000Z,305.51
2019-06-26T09:18:46.000Z,305.64
2019-06-26T09:20:09.000Z,305.73
2019-06-26T09:22:09.000Z,305.82
2019-06-26T09:23:32.000Z,305.87
2019-06-26T09:25:33.000Z,306
2019-06-26T09:26:55.000Z,306.15
2019-06-26T09:28:56.000Z,306.22
2019-06-26T09:30:18.000Z,306.2
2019-06-26T09:32:20.000Z,306.21
2019-06-26T09:33:42.000Z,306.04
2019-06-26T09:35:43.000Z,306.19
2019-06-26T09:37:05.000Z,306.11
2019-06-26T09:39:06.000Z,306.2
2019-06-26T09:40:28.000Z,306.15
2019-06-26T09:42:32.000Z,306.07
2019-06-26T09:43:55.000Z,306.18
2019-06-26T09:45:57.000Z,306.17
2019-06-26T09:47:20.000Z,306.18
2019-06-26T09:49:22.000Z,306.06
2019-06-26T09:50:45.000Z,306.2
2019-06-26T09:52:46.000Z,306.36
2019-06-26T09:54:08.000Z,306.38
2019-06-26T09:56:10.000Z,306.39
2019-06-26T09:57:34.000Z,306.35
2019-06-26T09:59:36.000Z,306.32
2019-06-26T10:00:59.000Z,306.47
2019-06-26T10:03:00.000Z,306.62
2019-06-26T10:04:22.000Z,306.66
2019-06-26T10:06:26.000Z,306.81
2019-06-26T10:07:48.000Z,306.67
2019-06-26T10:09:49.000Z,306.87
2019-06-26T10:11:12.000Z,307.08
2019-06-26T10:13:14.000Z,306.79
2019-06-26T10:14:36.000Z,306.87
2019-06-26T10:16:48.000Z,306.94
2019-06-26T10:18:11.000Z,307.28
2019-06-26T10:20:13.000Z,307.14
2019-06-26T10:21:36.000Z,306.91
2019-06-26T10:23:38.000Z,306.8
2019-06-26T10:25:01.000Z,306.85
2019-06-26T10:27:03.000Z,306.78
2019-06-26T10:28:27.000Z,306.93
2019-06-26T10:30:28.000Z,307.07
2019-06-26T10:31:51.000Z,306.95
2019-06-26T10:33:53.000Z,307.01
2019-06-26T10:35:16.000Z,307.12
2019-06-26T10:37:18.000Z,307.06
2019-06-26T10:38:39.000Z,307.37
2019-06-26T10:40:40.000Z,307.52
2019-06-26T10:42:02.000Z,307.63
2019-06-26T10:44:05.000Z,307.54
2019-06-26T10:45:27.000Z,307.55
2019-06-26T10:47:30.000Z,307.67
2019-06-26T10:48:53.000Z,307.65
2019-06-26T10:50:54.000Z,307.84
2019-06-26T10:52:20.000Z,308.03
2019-06-26T10:54:23.000Z,307.75
2019-06-26T10:55:48.000Z,307.71
2019-06-26T10:57:51.000Z,307.88
2019-06-26T10:59:17.000Z,307.86
2019-06-26T11:01:20.000Z,307.83
2019-06-26T11:02:45.000Z,308.03
2019-06-26T11:04:49.000Z,308.19
2019-06-26T11:06:17.000Z,308.41
2019-06-26T11:09:51.000Z,308.59
2019-06-26T11:10:43.000Z,308.55
2019-06-26T11:12:07.000Z,308.12
2019-06-26T11:14:08.000Z,308.27
2019-06-26T11:15:33.000Z,308.45
2019-06-26T11:17:34.000Z,308.36
2019-06-26T11:18:59.000Z,308.09
2019-06-26T11:21:03.000Z,308.02
2019-06-26T11:22:28.000Z,308.05
2019-06-26T11:24:34.000Z,308.1
2019-06-26T11:25:57.000Z,308.04
2019-06-26T11:28:03.000Z,308.18
2019-06-26T11:29:27.000Z,308.09
2019-06-26T11:31:32.000Z,308.27
2019-06-26T11:33:01.000Z,308.48
2019-06-26T11:35:03.000Z,308.59
2019-06-26T11:36:29.000Z,308.58
2019-06-26T11:38:34.000Z,308.99
2019-06-26T11:39:59.000Z,309.02
2019-06-26T11:42:04.000Z,308.84
2019-06-26T11:43:32.000Z,308.67
2019-06-26T11:45:33.000Z,308.54
2019-06-26T11:46:57.000Z,308.33
2019-06-26T11:49:05.000Z,308.52
2019-06-26T11:50:28.000Z,308.61
2019-06-26T11:52:31.000Z,308.89
2019-06-26T11:53:59.000Z,309.05
2019-06-26T11:56:06.000Z,309.04
2019-06-26T11:57:32.000Z,309.02
2019-06-26T11:59:40.000Z,309.06
2019-06-26T12:01:03.000Z,308.84
2019-06-26T12:03:08.000Z,308.89
2019-06-26T12:04:36.000Z,309
2019-06-26T12:06:42.000Z,309.27
2019-06-26T12:08:15.000Z,309.76
2019-06-26T12:10:23.000Z,309.79
2019-06-26T12:11:55.000Z,309.31
2019-06-26T12:14:01.000Z,309
2019-06-26T12:15:26.000Z,308.66
2019-06-26T12:17:35.000Z,308.78
2019-06-26T12:19:00.000Z,309.15
2019-06-26T12:21:04.000Z,309.44
2019-06-26T12:22:31.000Z,309.56
2019-06-26T12:24:39.000Z,309.31
2019-06-26T12:26:04.000Z,309.37
2019-06-26T12:28:07.000Z,309.27
2019-06-26T12:29:33.000Z,309.21
2019-06-26T12:31:40.000Z,309.25
2019-06-26T12:33:09.000Z,309.25
2019-06-26T12:35:19.000Z,309.31
2019-06-26T12:36:50.000Z,309.3
2019-06-26T12:38:54.000Z,309.42
2019-06-26T12:40:23.000Z,309.36
2019-06-26T12:42:28.000Z,309.69
2019-06-26T12:43:57.000Z,310.12
2019-06-26T12:46:03.000Z,310.2
2019-06-26T12:47:33.000Z,310.3
2019-06-26T12:49:43.000Z,310.24
2019-06-26T12:51:10.000Z,310.56
2019-06-26T12:53:23.000Z,310.22
2019-06-26T12:54:53.000Z,310.38
2019-06-26T12:57:04.000Z,310.06
2019-06-26T12:58:31.000Z,309.8
2019-06-26T13:00:38.000Z,309.78
2019-06-26T13:02:09.000Z,310.23
2019-06-26T13:04:22.000Z,310.32
2019-06-26T13:05:51.000Z,310.23
2019-06-26T13:07:59.000Z,310.32
2019-06-26T13:09:27.000Z,310.68
2019-06-26T13:11:35.000Z,310.49
2019-06-26T13:13:03.000Z,310.66
2019-06-26T13:15:14.000Z,310.53
2019-06-26T13:16:48.000Z,310.52
2019-06-26T13:19:00.000Z,310.54
2019-06-26T13:20:32.000Z,310.77
2019-06-26T13:22:42.000Z,310.33
2019-06-26T13:24:14.000Z,310.3
2019-06-26T13:26:25.000Z,310.14
2019-06-26T13:27:51.000Z,309.84
2019-06-26T13:30:04.000Z,309.8
2019-06-26T13:31:33.000Z,310
2019-06-26T13:33:43.000Z,310.3
2019-06-26T13:35:13.000Z,310.53
2019-06-26T13:37:21.000Z,310.42
2019-06-26T13:38:53.000Z,310.43
2019-06-26T13:41:03.000Z,310.06
2019-06-26T13:42:37.000Z,310.19
2019-06-26T13:44:48.000Z,310.08
2019-06-26T13:46:17.000Z,310.44
2019-06-26T13:48:27.000Z,310.86
2019-06-26T13:49:59.000Z,310.8
2019-06-26T13:53:22.000Z,310.33
2019-06-26T13:54:44.000Z,310.53
2019-06-26T13:56:46.000Z,310.65
2019-06-26T13:58:08.000Z,310.68
2019-06-26T14:00:09.000Z,310.66
2019-06-26T14:01:32.000Z,310.7
2019-06-26T14:03:32.000Z,310.81
2019-06-26T14:04:54.000Z,310.58
2019-06-26T14:06:55.000Z,310.51
2019-06-26T14:08:18.000Z,310.38
2019-06-26T14:10:19.000Z,310.68
2019-06-26T14:11:41.000Z,310.61
2019-06-26T14:13:42.000Z,310.74
2019-06-26T14:15:04.000Z,310.54
2019-06-26T14:17:05.000Z,310.39
2019-06-26T14:18:27.000Z,310.34
2019-06-26T14:20:31.000Z,310.57
2019-06-26T14:21:53.000Z,310.35
2019-06-26T14:23:54.000Z,310.8
2019-06-26T14:25:16.000Z,310.77
2019-06-26T14:27:18.000Z,311.05
2019-06-26T14:28:40.000Z,311.34
2019-06-26T14:30:41.000Z,311.58
2019-06-26T14:32:03.000Z,311.6
2019-06-26T14:34:04.000Z,311.42
2019-06-26T14:35:27.000Z,311.48
2019-06-26T14:37:28.000Z,311.14
2019-06-26T14:38:50.000Z,310.89
2019-06-26T14:40:51.000Z,310.9
2019-06-26T14:42:13.000Z,310.91
2019-06-26T14:44:14.000Z,310.71
2019-06-26T14:45:37.000Z,310.81
2019-06-26T14:47:38.000Z,311.06
2019-06-26T14:49:00.000Z,311.28
2019-06-26T14:51:01.000Z,311.39
2019-06-26T14:52:24.000Z,311.45
2019-06-26T14:54:25.000Z,311.32
2019-06-26T14:55:48.000Z,311.69
2019-06-26T14:57:49.000Z,312.22
2019-06-26T14:59:11.000Z,311.7
2019-06-26T15:01:13.000Z,311.36
2019-06-26T15:02:35.000Z,311.43
2019-06-26T15:04:36.000Z,310.97
2019-06-26T15:05:58.000Z,311.05
2019-06-26T15:08:17.000Z,311.29
2019-06-26T15:09:39.000Z,310.94
2019-06-26T15:11:42.000Z,310.61
2019-06-26T15:13:05.000Z,310.8
2019-06-26T15:15:07.000Z,310.87
2019-06-26T15:16:29.000Z,311.07
2019-06-26T15:18:32.000Z,311.07
2019-06-26T15:19:55.000Z,311.01
2019-06-26T15:22:07.000Z,311.05
2019-06-26T15:23:29.000Z,311.03
2019-06-26T15:25:33.000Z,311.04
2019-06-26T15:26:55.000Z,310.87
2019-06-26T15:28:56.000Z,310.72
2019-06-26T15:30:20.000Z,310.94
2019-06-26T15:32:21.000Z,310.99
2019-06-26T15:33:47.000Z,310.63
2019-06-26T15:37:23.000Z,311.01
2019-06-26T15:39:38.000Z,310.89
2019-06-26T15:41:00.000Z,310.61
2019-06-26T15:43:04.000Z,310.46
2019-06-26T15:44:26.000Z,310.26
2019-06-26T15:46:28.000Z,310.44
2019-06-26T15:47:52.000Z,310.85
2019-06-26T15:49:53.000Z,310.93
2019-06-26T15:51:15.000Z,310.95
2019-06-26T15:53:17.000Z,311.08
2019-06-26T15:54:39.000Z,310.98
2019-06-26T15:56:40.000Z,311.09
2019-06-26T15:58:02.000Z,310.63
2019-06-26T16:00:05.000Z,311
2019-06-26T16:01:27.000Z,311.21
2019-06-26T16:03:28.000Z,311.41
2019-06-26T16:04:51.000Z,311.32
2019-06-26T16:06:52.000Z,310.8
2019-06-26T16:08:14.000Z,310.56
2019-06-26T16:10:16.000Z,310.4
2019-06-26T16:11:38.000Z,310.54
2019-06-26T16:13:40.000Z,310.73
2019-06-26T16:15:03.000Z,310.59
2019-06-26T16:17:10.000Z,310.93
2019-06-26T16:18:33.000Z,310.92
2019-06-26T16:20:34.000Z,310.9
2019-06-26T16:21:58.000Z,311.03
2019-06-26T16:24:00.000Z,310.92
2019-06-26T16:25:22.000Z,310.59
2019-06-26T16:27:24.000Z,310.52
2019-06-26T16:28:46.000Z,310.69
2019-06-26T16:30:47.000Z,310.61
2019-06-26T16:32:08.000Z,310.63
2019-06-26T16:34:09.000Z,310.21
2019-06-26T16:35:32.000Z,310.26
2019-06-26T16:37:33.000Z,310.5
2019-06-26T16:38:55.000Z,310.36
2019-06-26T16:40:57.000Z,310.25
2019-06-26T16:42:20.000Z,310.39
2019-06-26T16:44:23.000Z,310.59
2019-06-26T16:45:48.000Z,310.47
2019-06-26T16:47:50.000Z,310.49
2019-06-26T16:49:13.000Z,310.42
2019-06-26T16:51:16.000Z,310.35
2019-06-26T16:52:38.000Z,310.26
2019-06-26T16:54:51.000Z,310.26
2019-06-26T16:56:13.000Z,310.53
2019-06-26T16:58:14.000Z,310.39
2019-06-26T16:59:38.000Z,310.59
2019-06-26T17:01:39.000Z,310.35
2019-06-26T17:03:01.000Z,310.65
2019-06-26T17:05:04.000Z,310.67
2019-06-26T17:06:26.000Z,310.55
2019-06-26T17:08:28.000Z,310.22
2019-06-26T17:09:50.000Z,310.07
2019-06-26T17:11:51.000Z,310.11
2019-06-26T17:13:13.000Z,310.13
2019-06-26T17:15:15.000Z,310.1
2019-06-26T17:16:39.000Z,310
2019-06-26T17:18:41.000Z,309.99
2019-06-26T17:20:04.000Z,310.04
2019-06-26T17:22:07.000Z,309.98
2019-06-26T17:23:30.000Z,309.89
2019-06-26T17:25:32.000Z,309.75
2019-06-26T17:26:57.000Z,309.74
2019-06-26T17:29:02.000Z,309.78
2019-06-26T17:30:24.000Z,309.91
2019-06-26T17:32:26.000Z,309.84
2019-06-26T17:33:52.000Z,309.55
2019-06-26T17:37:28.000Z,309.35
2019-06-26T17:39:13.000Z,309.24
2019-06-26T17:40:35.000Z,309.32
2019-06-26T17:42:36.000Z,309.18
2019-06-26T17:43:58.000Z,309.12
2019-06-26T17:45:59.000Z,308.88
2019-06-26T17:47:21.000Z,308.65
2019-06-26T17:49:22.000Z,308.51
2019-06-26T17:50:44.000Z,308.22
2019-06-26T17:52:46.000Z,308.06
2019-06-26T17:54:09.000Z,308.06
2019-06-26T17:56:10.000Z,308.19
2019-06-26T17:57:32.000Z,308.25
2019-06-26T17:59:33.000Z,308.47
2019-06-26T18:00:56.000Z,308.11
2019-06-26T18:02:57.000Z,307.73
2019-06-26T18:04:19.000Z,307.47
2019-06-26T18:06:20.000Z,307.57
2019-06-26T18:07:43.000Z,307.32
2019-06-26T18:09:44.000Z,307.21
2019-06-26T18:11:06.000Z,307.24
2019-06-26T18:13:07.000Z,307.06
2019-06-26T18:14:29.000Z,306.96
2019-06-26T18:16:33.000Z,306.72
2019-06-26T18:17:55.000Z,306.78
2019-06-26T18:19:56.000Z,306.58
2019-06-26T18:21:19.000Z,306.54
2019-06-26T18:23:21.000Z,306.26
2019-06-26T18:25:00.000Z,306.29
2019-06-26T18:27:02.000Z,306.06
2019-06-26T18:28:24.000Z,306.01
2019-06-26T18:30:26.000Z,305.87
2019-06-26T18:31:49.000Z,305.73
2019-06-26T18:33:50.000Z,305.77
2019-06-26T18:35:18.000Z,305.74
2019-06-26T18:37:23.000Z,305.69
2019-06-26T18:38:45.000Z,305.56
2019-06-26T18:40:46.000Z,305.43
2019-06-26T18:42:08.000Z,305.65
2019-06-26T18:44:09.000Z,305.64
2019-06-26T18:45:33.000Z,305.66
2019-06-26T18:47:34.000Z,305.51
2019-06-26T18:48:56.000Z,305.41
2019-06-26T18:50:58.000Z,305.41
2019-06-26T18:52:20.000Z,305.24
2019-06-26T18:54:22.000Z,305.08
2019-06-26T18:55:47.000Z,304.9
2019-06-26T18:57:50.000Z,304.8
2019-06-26T18:59:13.000Z,304.72
2019-06-26T19:01:14.000Z,304.59
2019-06-26T19:02:39.000Z,304.22
2019-06-26T19:04:41.000Z,304
2019-06-26T19:06:06.000Z,303.99
2019-06-26T19:08:09.000Z,303.88
2019-06-26T19:09:31.000Z,303.92
2019-06-26T19:11:34.000Z,303.98
2019-06-26T19:12:56.000Z,303.75
2019-06-26T19:15:00.000Z,303.75
2019-06-26T19:16:23.000Z,303.64
2019-06-26T19:18:26.000Z,303.38
2019-06-26T19:19:49.000Z,303.5
2019-06-26T19:21:55.000Z,303.27
2019-06-26T19:23:17.000Z,303.23
2019-06-26T19:25:19.000Z,303.07
2019-06-26T19:26:41.000Z,303.04
2019-06-26T19:28:45.000Z,302.95
2019-06-26T19:30:08.000Z,303
2019-06-26T19:32:10.000Z,302.84
2019-06-26T19:33:34.000Z,302.72
2019-06-26T19:35:41.000Z,302.69
2019-06-26T19:37:04.000Z,302.73
2019-06-26T19:39:07.000Z,302.68
2019-06-26T19:40:33.000Z,302.45
2019-06-26T19:42:37.000Z,302.37
2019-06-26T19:44:03.000Z,302.28
2019-06-26T19:46:07.000Z,302.15
2019-06-26T19:47:32.000Z,302.1
2019-06-26T19:49:38.000Z,302.05
2019-06-26T19:51:03.000Z,302.11
2019-06-26T19:53:07.000Z,301.98
2019-06-26T19:54:34.000Z,301.88
2019-06-26T19:56:38.000Z,301.88
2019-06-26T19:58:03.000Z,301.8
2019-06-26T20:00:07.000Z,301.74
2019-06-26T20:01:32.000Z,301.71
2019-06-26T20:03:39.000Z,301.65
2019-06-26T20:05:06.000Z,301.53
2019-06-26T20:07:08.000Z,301.56
2019-06-26T20:08:37.000Z,301.53
2019-06-26T20:11:00.000Z,301.48
2019-06-26T20:12:25.000Z,301.47
2019-06-26T20:14:28.000Z,301.25
2019-06-26T20:15:55.000Z,301.26
2019-06-26T20:17:58.000Z,301.2
2019-06-26T20:19:20.000Z,301.12
2019-06-26T20:21:26.000Z,301.18
2019-06-26T20:22:50.000Z,301.06
2019-06-26T20:24:54.000Z,301.05
2019-06-26T20:26:22.000Z,301.04
2019-06-26T20:28:28.000Z,301.02
2019-06-26T20:29:55.000Z,300.89
2019-06-26T20:31:58.000Z,300.83
2019-06-26T20:33:21.000Z,300.81
2019-06-26T20:35:26.000Z,300.69
2019-06-26T20:36:52.000Z,300.62
2019-06-26T20:38:57.000Z,300.59
2019-06-26T20:40:24.000Z,300.56
2019-06-26T20:42:30.000Z,300.51
2019-06-26T20:44:03.000Z,300.48
2019-06-26T20:46:09.000Z,300.44
2019-06-26T20:47:35.000Z,300.39
2019-06-26T20:49:41.000Z,300.36
2019-06-26T20:51:19.000Z,300.32
2019-06-26T20:53:29.000Z,300.27
2019-06-26T20:54:54.000Z,300.22
2019-06-26T20:57:11.000Z,300.13
2019-06-26T20:58:38.000Z,300.1
2019-06-26T21:00:45.000Z,300.04
2019-06-26T21:02:18.000Z,299.97
2019-06-26T21:06:17.000Z,299.93
2019-06-26T21:07:39.000Z,299.92
2019-06-26T21:09:40.000Z,299.97
2019-06-26T21:11:02.000Z,300.06
2019-06-26T21:13:04.000Z,299.91
2019-06-26T21:14:26.000Z,299.86
2019-06-26T21:16:29.000Z,299.75
2019-06-26T21:17:51.000Z,299.71
2019-06-26T21:19:53.000Z,299.71
2019-06-26T21:21:15.000Z,299.63
2019-06-26T21:23:16.000Z,299.55
2019-06-26T21:24:41.000Z,299.52
2019-06-26T21:26:42.000Z,299.55
2019-06-26T21:28:04.000Z,299.59
2019-06-26T21:30:05.000Z,299.49
2019-06-26T21:31:27.000Z,299.47
2019-06-26T21:33:27.000Z,299.37
2019-06-26T21:34:49.000Z,299.36
2019-06-26T21:36:50.000Z,299.37
2019-06-26T21:38:12.000Z,299.32
2019-06-26T21:40:13.000Z,299.27
2019-06-26T21:41:36.000Z,299.29
2019-06-26T21:43:37.000Z,299.21
2019-06-26T21:44:59.000Z,299.13
2019-06-26T21:47:01.000Z,299.25
2019-06-26T21:48:24.000Z,299.29
2019-06-26T21:50:25.000Z,299.26
2019-06-26T21:51:53.000Z,299.17
2019-06-26T21:55:28.000Z,299.12
2019-06-26T21:56:08.000Z,299.13
2019-06-26T21:57:31.000Z,299.07
2019-06-26T21:59:32.000Z,299.02
2019-06-26T22:00:55.000Z,299.01